sensor_id;sensor_type;location;lat;lon;timestamp;P1;durP1;ratioP1;P2;durP2;ratioP2
49572;SDS011;35476;52.466;13.364;2023-02-28T00:01:12;5.13;;;2.92;;
49572;SDS011;35476;52.466;13.364;2023-02-28T00:03:37;8.10;;;3.35;;
49572;SDS011;35476;52.466;13.364;2023-02-28T00:06:03;4.97;;;3.50;;
49572;SDS011;35476;52.466;13.364;2023-02-28T00:08:29;9.18;;;3.85;;
49572;SDS011;35476;52.466;13.364;2023-02-28T00:10:54;6.18;;;3.10;;
49572;SDS011;35476;52.466;13.364;2023-02-28T00:13:19;9.13;;;3.97;;
49572;SDS011;35476;52.466;13.364;2023-02-28T00:15:44;6.77;;;3.67;;
49572;SDS011;35476;52.466;13.364;2023-02-28T00:18:10;5.68;;;3.67;;
49572;SDS011;35476;52.466;13.364;2023-02-28T00:20:36;7.50;;;3.85;;
49572;SDS011;35476;52.466;13.364;2023-02-28T00:23:02;5.80;;;3.47;;
49572;SDS011;35476;52.466;13.364;2023-02-28T00:25:27;6.60;;;3.40;;
49572;SDS011;35476;52.466;13.364;2023-02-28T00:27:52;11.47;;;4.53;;
49572;SDS011;35476;52.466;13.364;2023-02-28T00:30:18;7.25;;;3.47;;
49572;SDS011;35476;52.466;13.364;2023-02-28T00:32:44;10.32;;;4.75;;
49572;SDS011;35476;52.466;13.364;2023-02-28T00:35:10;6.30;;;3.83;;
49572;SDS011;35476;52.466;13.364;2023-02-28T00:37:35;5.75;;;3.42;;
49572;SDS011;35476;52.466;13.364;2023-02-28T00:40:00;6.93;;;4.17;;
49572;SDS011;35476;52.466;13.364;2023-02-28T00:42:26;7.78;;;3.92;;
49572;SDS011;35476;52.466;13.364;2023-02-28T00:44:51;12.00;;;4.05;;
49572;SDS011;35476;52.466;13.364;2023-02-28T00:47:16;7.33;;;4.40;;
49572;SDS011;35476;52.466;13.364;2023-02-28T00:49:42;10.38;;;4.72;;
49572;SDS011;35476;52.466;13.364;2023-02-28T00:52:07;7.10;;;4.13;;
49572;SDS011;35476;52.466;13.364;2023-02-28T00:54:32;14.10;;;5.70;;
49572;SDS011;35476;52.466;13.364;2023-02-28T00:56:57;6.35;;;3.40;;
49572;SDS011;35476;52.466;13.364;2023-02-28T00:59:23;9.05;;;4.20;;
49572;SDS011;35476;52.466;13.364;2023-02-28T01:01:48;10.53;;;3.93;;
49572;SDS011;35476;52.466;13.364;2023-02-28T01:04:13;10.52;;;4.47;;
49572;SDS011;35476;52.466;13.364;2023-02-28T01:06:38;8.73;;;4.22;;
49572;SDS011;35476;52.466;13.364;2023-02-28T01:09:04;9.50;;;4.23;;
49572;SDS011;35476;52.466;13.364;2023-02-28T01:11:30;8.15;;;4.40;;
49572;SDS011;35476;52.466;13.364;2023-02-28T01:13:55;7.03;;;4.28;;
49572;SDS011;35476;52.466;13.364;2023-02-28T01:16:20;6.03;;;3.85;;
49572;SDS011;35476;52.466;13.364;2023-02-28T01:18:45;14.68;;;4.82;;
49572;SDS011;35476;52.466;13.364;2023-02-28T01:21:12;6.40;;;4.00;;
49572;SDS011;35476;52.466;13.364;2023-02-28T01:23:38;7.05;;;4.03;;
49572;SDS011;35476;52.466;13.364;2023-02-28T01:26:10;8.65;;;4.88;;
49572;SDS011;35476;52.466;13.364;2023-02-28T01:28:36;10.00;;;4.95;;
49572;SDS011;35476;52.466;13.364;2023-02-28T01:31:01;9.48;;;4.57;;
49572;SDS011;35476;52.466;13.364;2023-02-28T01:33:26;7.60;;;4.32;;
49572;SDS011;35476;52.466;13.364;2023-02-28T01:36:01;8.40;;;4.53;;
49572;SDS011;35476;52.466;13.364;2023-02-28T01:38:27;9.50;;;4.10;;
49572;SDS011;35476;52.466;13.364;2023-02-28T01:40:52;7.10;;;4.05;;
49572;SDS011;35476;52.466;13.364;2023-02-28T01:45:46;7.13;;;4.60;;
49572;SDS011;35476;52.466;13.364;2023-02-28T01:48:11;8.85;;;4.57;;
49572;SDS011;35476;52.466;13.364;2023-02-28T01:50:38;11.82;;;5.07;;
49572;SDS011;35476;52.466;13.364;2023-02-28T01:53:05;8.55;;;4.70;;
49572;SDS011;35476;52.466;13.364;2023-02-28T01:55:31;7.55;;;4.30;;
49572;SDS011;35476;52.466;13.364;2023-02-28T01:57:58;8.20;;;4.55;;
49572;SDS011;35476;52.466;13.364;2023-02-28T02:00:27;10.32;;;6.47;;
49572;SDS011;35476;52.466;13.364;2023-02-28T02:02:54;8.02;;;4.55;;
49572;SDS011;35476;52.466;13.364;2023-02-28T02:05:21;10.13;;;4.88;;
49572;SDS011;35476;52.466;13.364;2023-02-28T02:07:48;11.75;;;5.57;;
49572;SDS011;35476;52.466;13.364;2023-02-28T02:10:16;6.75;;;4.28;;
49572;SDS011;35476;52.466;13.364;2023-02-28T02:17:54;8.48;;;4.30;;
49572;SDS011;35476;52.466;13.364;2023-02-28T02:25:28;6.82;;;4.57;;
49572;SDS011;35476;52.466;13.364;2023-02-28T02:28:14;8.38;;;5.00;;
49572;SDS011;35476;52.466;13.364;2023-02-28T02:40:56;9.23;;;4.40;;
49572;SDS011;35476;52.466;13.364;2023-02-28T02:43:25;10.15;;;5.18;;
49572;SDS011;35476;52.466;13.364;2023-02-28T02:45:53;8.07;;;4.20;;
49572;SDS011;35476;52.466;13.364;2023-02-28T02:48:20;14.05;;;5.72;;
49572;SDS011;35476;52.466;13.364;2023-02-28T02:50:48;10.82;;;4.60;;
49572;SDS011;35476;52.466;13.364;2023-02-28T02:53:14;16.05;;;9.40;;
49572;SDS011;35476;52.466;13.364;2023-02-28T02:55:43;7.10;;;4.55;;
49572;SDS011;35476;52.466;13.364;2023-02-28T02:58:16;21.60;;;4.63;;
49572;SDS011;35476;52.466;13.364;2023-02-28T03:00:45;8.75;;;4.55;;
49572;SDS011;35476;52.466;13.364;2023-02-28T03:03:11;7.13;;;4.70;;
49572;SDS011;35476;52.466;13.364;2023-02-28T03:05:48;12.70;;;5.65;;
49572;SDS011;35476;52.466;13.364;2023-02-28T03:08:13;8.77;;;5.93;;
49572;SDS011;35476;52.466;13.364;2023-02-28T03:10:40;8.43;;;4.75;;
49572;SDS011;35476;52.466;13.364;2023-02-28T03:13:11;13.30;;;6.78;;
49572;SDS011;35476;52.466;13.364;2023-02-28T03:15:47;14.98;;;8.05;;
49572;SDS011;35476;52.466;13.364;2023-02-28T03:18:24;16.55;;;6.35;;
49572;SDS011;35476;52.466;13.364;2023-02-28T03:20:58;17.25;;;6.82;;
49572;SDS011;35476;52.466;13.364;2023-02-28T03:23:30;9.38;;;5.38;;
49572;SDS011;35476;52.466;13.364;2023-02-28T03:26:02;7.40;;;3.80;;
49572;SDS011;35476;52.466;13.364;2023-02-28T03:28:51;8.27;;;4.95;;
49572;SDS011;35476;52.466;13.364;2023-02-28T03:33:54;9.27;;;5.55;;
49572;SDS011;35476;52.466;13.364;2023-02-28T03:36:28;9.82;;;6.10;;
49572;SDS011;35476;52.466;13.364;2023-02-28T03:38:55;15.95;;;5.93;;
49572;SDS011;35476;52.466;13.364;2023-02-28T03:41:22;9.40;;;4.90;;
49572;SDS011;35476;52.466;13.364;2023-02-28T03:43:49;11.52;;;4.95;;
49572;SDS011;35476;52.466;13.364;2023-02-28T03:46:16;10.57;;;5.30;;
49572;SDS011;35476;52.466;13.364;2023-02-28T03:48:45;10.65;;;5.53;;
49572;SDS011;35476;52.466;13.364;2023-02-28T03:51:14;10.88;;;5.60;;
49572;SDS011;35476;52.466;13.364;2023-02-28T03:53:42;9.52;;;5.18;;
49572;SDS011;35476;52.466;13.364;2023-02-28T03:56:14;7.90;;;4.72;;
49572;SDS011;35476;52.466;13.364;2023-02-28T04:01:17;10.93;;;5.22;;
49572;SDS011;35476;52.466;13.364;2023-02-28T04:03:43;9.60;;;5.22;;
49572;SDS011;35476;52.466;13.364;2023-02-28T04:06:13;12.45;;;5.40;;
49572;SDS011;35476;52.466;13.364;2023-02-28T04:08:39;11.55;;;5.35;;
49572;SDS011;35476;52.466;13.364;2023-02-28T04:11:07;9.23;;;5.33;;
49572;SDS011;35476;52.466;13.364;2023-02-28T04:13:37;10.00;;;5.10;;
49572;SDS011;35476;52.466;13.364;2023-02-28T04:16:02;11.20;;;4.93;;
49572;SDS011;35476;52.466;13.364;2023-02-28T04:18:36;7.18;;;4.75;;
49572;SDS011;35476;52.466;13.364;2023-02-28T04:21:02;8.50;;;4.60;;
49572;SDS011;35476;52.466;13.364;2023-02-28T04:23:27;8.80;;;4.95;;
49572;SDS011;35476;52.466;13.364;2023-02-28T04:25:54;10.98;;;5.35;;
49572;SDS011;35476;52.466;13.364;2023-02-28T04:28:19;15.55;;;6.18;;
49572;SDS011;35476;52.466;13.364;2023-02-28T04:30:44;7.73;;;4.30;;
49572;SDS011;35476;52.466;13.364;2023-02-28T04:33:09;6.85;;;4.47;;
49572;SDS011;35476;52.466;13.364;2023-02-28T04:35:35;8.23;;;4.43;;
49572;SDS011;35476;52.466;13.364;2023-02-28T04:38:00;11.67;;;5.83;;
49572;SDS011;35476;52.466;13.364;2023-02-28T04:40:25;9.05;;;4.30;;
49572;SDS011;35476;52.466;13.364;2023-02-28T04:42:50;7.97;;;5.15;;
49572;SDS011;35476;52.466;13.364;2023-02-28T04:45:15;10.45;;;5.78;;
49572;SDS011;35476;52.466;13.364;2023-02-28T04:47:42;10.40;;;5.40;;
49572;SDS011;35476;52.466;13.364;2023-02-28T04:50:07;8.90;;;4.80;;
49572;SDS011;35476;52.466;13.364;2023-02-28T04:52:33;8.60;;;4.70;;
49572;SDS011;35476;52.466;13.364;2023-02-28T04:54:58;9.50;;;5.22;;
49572;SDS011;35476;52.466;13.364;2023-02-28T04:57:24;9.23;;;4.90;;
49572;SDS011;35476;52.466;13.364;2023-02-28T04:59:49;9.43;;;4.22;;
49572;SDS011;35476;52.466;13.364;2023-02-28T05:02:14;13.13;;;5.47;;
49572;SDS011;35476;52.466;13.364;2023-02-28T05:04:39;9.77;;;5.25;;
49572;SDS011;35476;52.466;13.364;2023-02-28T05:07:05;12.90;;;4.50;;
49572;SDS011;35476;52.466;13.364;2023-02-28T05:09:30;13.02;;;4.63;;
49572;SDS011;35476;52.466;13.364;2023-02-28T05:11:55;11.32;;;4.30;;
49572;SDS011;35476;52.466;13.364;2023-02-28T05:14:21;6.68;;;4.50;;
49572;SDS011;35476;52.466;13.364;2023-02-28T05:16:46;7.70;;;4.75;;
49572;SDS011;35476;52.466;13.364;2023-02-28T05:19:11;9.48;;;4.97;;
49572;SDS011;35476;52.466;13.364;2023-02-28T05:21:38;9.55;;;5.32;;
49572;SDS011;35476;52.466;13.364;2023-02-28T05:24:04;11.45;;;5.20;;
49572;SDS011;35476;52.466;13.364;2023-02-28T05:26:30;13.50;;;6.05;;
49572;SDS011;35476;52.466;13.364;2023-02-28T05:28:55;10.02;;;5.53;;
49572;SDS011;35476;52.466;13.364;2023-02-28T05:31:21;13.00;;;5.70;;
49572;SDS011;35476;52.466;13.364;2023-02-28T05:33:46;9.63;;;5.35;;
49572;SDS011;35476;52.466;13.364;2023-02-28T05:36:12;7.25;;;5.22;;
49572;SDS011;35476;52.466;13.364;2023-02-28T05:38:37;10.88;;;4.68;;
49572;SDS011;35476;52.466;13.364;2023-02-28T05:41:06;12.70;;;6.30;;
49572;SDS011;35476;52.466;13.364;2023-02-28T05:43:31;12.88;;;6.03;;
49572;SDS011;35476;52.466;13.364;2023-02-28T05:45:57;9.52;;;5.70;;
49572;SDS011;35476;52.466;13.364;2023-02-28T05:48:22;13.05;;;4.75;;
49572;SDS011;35476;52.466;13.364;2023-02-28T05:50:47;13.95;;;6.25;;
49572;SDS011;35476;52.466;13.364;2023-02-28T05:53:12;11.38;;;5.82;;
49572;SDS011;35476;52.466;13.364;2023-02-28T05:55:37;10.73;;;5.60;;
49572;SDS011;35476;52.466;13.364;2023-02-28T05:58:03;14.80;;;6.80;;
49572;SDS011;35476;52.466;13.364;2023-02-28T06:00:28;10.10;;;5.47;;
49572;SDS011;35476;52.466;13.364;2023-02-28T06:02:53;14.43;;;5.82;;
49572;SDS011;35476;52.466;13.364;2023-02-28T06:05:21;15.88;;;5.82;;
49572;SDS011;35476;52.466;13.364;2023-02-28T06:07:46;11.73;;;6.15;;
49572;SDS011;35476;52.466;13.364;2023-02-28T06:10:12;11.25;;;6.28;;
49572;SDS011;35476;52.466;13.364;2023-02-28T06:12:38;6.55;;;4.25;;
49572;SDS011;35476;52.466;13.364;2023-02-28T06:15:03;8.65;;;5.97;;
49572;SDS011;35476;52.466;13.364;2023-02-28T06:17:28;9.27;;;5.43;;
49572;SDS011;35476;52.466;13.364;2023-02-28T06:19:55;10.57;;;5.55;;
49572;SDS011;35476;52.466;13.364;2023-02-28T06:22:20;8.70;;;5.70;;
49572;SDS011;35476;52.466;13.364;2023-02-28T06:24:45;8.48;;;5.50;;
49572;SDS011;35476;52.466;13.364;2023-02-28T06:27:10;9.02;;;5.90;;
49572;SDS011;35476;52.466;13.364;2023-02-28T06:29:36;14.00;;;6.20;;
49572;SDS011;35476;52.466;13.364;2023-02-28T06:32:04;11.40;;;5.60;;
49572;SDS011;35476;52.466;13.364;2023-02-28T06:34:30;14.50;;;5.38;;
49572;SDS011;35476;52.466;13.364;2023-02-28T06:36:55;13.63;;;6.07;;
49572;SDS011;35476;52.466;13.364;2023-02-28T06:39:21;12.23;;;6.25;;
49572;SDS011;35476;52.466;13.364;2023-02-28T06:41:46;12.05;;;6.75;;
49572;SDS011;35476;52.466;13.364;2023-02-28T06:44:13;18.60;;;6.38;;
49572;SDS011;35476;52.466;13.364;2023-02-28T06:46:39;14.48;;;6.50;;
49572;SDS011;35476;52.466;13.364;2023-02-28T06:49:05;15.23;;;8.07;;
49572;SDS011;35476;52.466;13.364;2023-02-28T06:51:34;20.95;;;7.57;;
49572;SDS011;35476;52.466;13.364;2023-02-28T06:53:59;17.02;;;8.10;;
49572;SDS011;35476;52.466;13.364;2023-02-28T06:56:24;14.02;;;7.60;;
49572;SDS011;35476;52.466;13.364;2023-02-28T06:58:50;12.85;;;7.57;;
49572;SDS011;35476;52.466;13.364;2023-02-28T07:01:15;15.57;;;8.15;;
49572;SDS011;35476;52.466;13.364;2023-02-28T07:03:41;13.90;;;7.00;;
49572;SDS011;35476;52.466;13.364;2023-02-28T07:06:06;19.70;;;8.15;;
49572;SDS011;35476;52.466;13.364;2023-02-28T07:08:32;16.45;;;7.43;;
49572;SDS011;35476;52.466;13.364;2023-02-28T07:10:58;12.65;;;7.60;;
49572;SDS011;35476;52.466;13.364;2023-02-28T07:13:23;13.77;;;6.57;;
49572;SDS011;35476;52.466;13.364;2023-02-28T07:15:53;14.02;;;8.27;;
49572;SDS011;35476;52.466;13.364;2023-02-28T07:18:18;15.10;;;8.63;;
49572;SDS011;35476;52.466;13.364;2023-02-28T07:20:44;15.68;;;9.45;;
49572;SDS011;35476;52.466;13.364;2023-02-28T07:23:09;19.75;;;9.52;;
49572;SDS011;35476;52.466;13.364;2023-02-28T07:25:34;13.43;;;7.97;;
49572;SDS011;35476;52.466;13.364;2023-02-28T07:27:59;14.77;;;8.90;;
49572;SDS011;35476;52.466;13.364;2023-02-28T07:30:25;16.55;;;8.13;;
49572;SDS011;35476;52.466;13.364;2023-02-28T07:32:50;16.63;;;8.57;;
49572;SDS011;35476;52.466;13.364;2023-02-28T07:35:15;12.43;;;8.10;;
49572;SDS011;35476;52.466;13.364;2023-02-28T07:37:41;12.48;;;7.80;;
49572;SDS011;35476;52.466;13.364;2023-02-28T07:40:07;14.57;;;6.93;;
49572;SDS011;35476;52.466;13.364;2023-02-28T07:42:33;13.45;;;6.57;;
49572;SDS011;35476;52.466;13.364;2023-02-28T07:44:58;12.43;;;6.85;;
49572;SDS011;35476;52.466;13.364;2023-02-28T07:47:24;9.13;;;5.27;;
49572;SDS011;35476;52.466;13.364;2023-02-28T07:49:49;9.38;;;5.10;;
49572;SDS011;35476;52.466;13.364;2023-02-28T07:52:14;7.70;;;5.07;;
49572;SDS011;35476;52.466;13.364;2023-02-28T07:54:39;13.60;;;5.47;;
49572;SDS011;35476;52.466;13.364;2023-02-28T07:57:05;10.93;;;5.53;;
49572;SDS011;35476;52.466;13.364;2023-02-28T07:59:30;12.57;;;5.85;;
49572;SDS011;35476;52.466;13.364;2023-02-28T08:01:56;8.38;;;5.75;;
49572;SDS011;35476;52.466;13.364;2023-02-28T08:04:21;12.65;;;4.80;;
49572;SDS011;35476;52.466;13.364;2023-02-28T08:06:47;9.33;;;5.20;;
49572;SDS011;35476;52.466;13.364;2023-02-28T08:09:12;9.98;;;6.10;;
49572;SDS011;35476;52.466;13.364;2023-02-28T08:11:37;20.53;;;5.73;;
49572;SDS011;35476;52.466;13.364;2023-02-28T08:14:02;9.00;;;5.90;;
49572;SDS011;35476;52.466;13.364;2023-02-28T08:16:28;8.90;;;5.25;;
49572;SDS011;35476;52.466;13.364;2023-02-28T08:18:53;10.90;;;5.93;;
49572;SDS011;35476;52.466;13.364;2023-02-28T08:21:19;12.27;;;4.38;;
49572;SDS011;35476;52.466;13.364;2023-02-28T08:23:46;6.32;;;4.03;;
49572;SDS011;35476;52.466;13.364;2023-02-28T08:26:12;6.60;;;4.00;;
49572;SDS011;35476;52.466;13.364;2023-02-28T08:28:37;7.75;;;3.92;;
49572;SDS011;35476;52.466;13.364;2023-02-28T08:31:06;5.80;;;2.57;;
49572;SDS011;35476;52.466;13.364;2023-02-28T08:33:31;4.95;;;2.55;;
49572;SDS011;35476;52.466;13.364;2023-02-28T08:35:56;3.67;;;2.70;;
49572;SDS011;35476;52.466;13.364;2023-02-28T08:38:22;6.80;;;3.00;;
49572;SDS011;35476;52.466;13.364;2023-02-28T08:40:48;5.28;;;3.47;;
49572;SDS011;35476;52.466;13.364;2023-02-28T08:43:13;4.40;;;2.70;;
49572;SDS011;35476;52.466;13.364;2023-02-28T08:45:38;5.43;;;2.63;;
49572;SDS011;35476;52.466;13.364;2023-02-28T08:48:04;3.38;;;2.50;;
49572;SDS011;35476;52.466;13.364;2023-02-28T08:50:29;4.93;;;2.20;;
49572;SDS011;35476;52.466;13.364;2023-02-28T08:52:54;3.53;;;2.23;;
49572;SDS011;35476;52.466;13.364;2023-02-28T08:55:19;5.37;;;2.80;;
49572;SDS011;35476;52.466;13.364;2023-02-28T08:57:44;6.20;;;3.50;;
49572;SDS011;35476;52.466;13.364;2023-02-28T09:00:10;3.73;;;2.40;;
49572;SDS011;35476;52.466;13.364;2023-02-28T09:02:38;6.30;;;3.00;;
49572;SDS011;35476;52.466;13.364;2023-02-28T09:05:03;3.80;;;2.15;;
49572;SDS011;35476;52.466;13.364;2023-02-28T09:07:28;3.83;;;3.00;;
49572;SDS011;35476;52.466;13.364;2023-02-28T09:09:54;5.20;;;2.87;;
49572;SDS011;35476;52.466;13.364;2023-02-28T09:12:22;4.93;;;2.00;;
49572;SDS011;35476;52.466;13.364;2023-02-28T09:14:48;3.78;;;2.40;;
49572;SDS011;35476;52.466;13.364;2023-02-28T09:17:13;4.10;;;2.77;;
49572;SDS011;35476;52.466;13.364;2023-02-28T09:19:38;7.97;;;2.53;;
49572;SDS011;35476;52.466;13.364;2023-02-28T09:22:03;5.97;;;2.90;;
49572;SDS011;35476;52.466;13.364;2023-02-28T09:24:29;4.17;;;2.83;;
49572;SDS011;35476;52.466;13.364;2023-02-28T09:26:56;5.18;;;2.70;;
49572;SDS011;35476;52.466;13.364;2023-02-28T09:29:21;4.90;;;2.93;;
49572;SDS011;35476;52.466;13.364;2023-02-28T09:31:46;4.33;;;3.13;;
49572;SDS011;35476;52.466;13.364;2023-02-28T09:34:12;7.03;;;2.72;;
49572;SDS011;35476;52.466;13.364;2023-02-28T09:36:37;5.32;;;2.80;;
49572;SDS011;35476;52.466;13.364;2023-02-28T09:39:02;5.57;;;3.23;;
49572;SDS011;35476;52.466;13.364;2023-02-28T09:41:28;6.22;;;2.60;;
49572;SDS011;35476;52.466;13.364;2023-02-28T09:43:57;3.70;;;2.28;;
49572;SDS011;35476;52.466;13.364;2023-02-28T09:48:52;4.68;;;2.60;;
49572;SDS011;35476;52.466;13.364;2023-02-28T09:54:02;4.72;;;2.38;;
49572;SDS011;35476;52.466;13.364;2023-02-28T09:56:31;5.65;;;2.65;;
49572;SDS011;35476;52.466;13.364;2023-02-28T09:59:39;4.72;;;2.75;;
49572;SDS011;35476;52.466;13.364;2023-02-28T10:07:17;5.22;;;2.15;;
49572;SDS011;35476;52.466;13.364;2023-02-28T10:09:45;4.18;;;2.75;;
49572;SDS011;35476;52.466;13.364;2023-02-28T10:12:11;3.25;;;2.17;;
49572;SDS011;35476;52.466;13.364;2023-02-28T10:14:37;3.45;;;2.40;;
49572;SDS011;35476;52.466;13.364;2023-02-28T10:17:04;5.07;;;2.42;;
49572;SDS011;35476;52.466;13.364;2023-02-28T10:22:08;7.85;;;2.78;;
49572;SDS011;35476;52.466;13.364;2023-02-28T10:24:37;3.55;;;2.35;;
49572;SDS011;35476;52.466;13.364;2023-02-28T10:27:25;4.22;;;2.53;;
49572;SDS011;35476;52.466;13.364;2023-02-28T10:29:50;5.57;;;2.63;;
49572;SDS011;35476;52.466;13.364;2023-02-28T10:32:17;10.60;;;2.67;;
49572;SDS011;35476;52.466;13.364;2023-02-28T10:34:43;3.20;;;2.53;;
49572;SDS011;35476;52.466;13.364;2023-02-28T10:37:09;4.97;;;3.10;;
49572;SDS011;35476;52.466;13.364;2023-02-28T10:39:40;3.70;;;2.30;;
49572;SDS011;35476;52.466;13.364;2023-02-28T10:42:19;6.60;;;2.78;;
49572;SDS011;35476;52.466;13.364;2023-02-28T10:44:44;3.78;;;2.38;;
49572;SDS011;35476;52.466;13.364;2023-02-28T10:47:14;3.83;;;2.20;;
49572;SDS011;35476;52.466;13.364;2023-02-28T10:49:45;3.90;;;2.75;;
49572;SDS011;35476;52.466;13.364;2023-02-28T10:52:11;2.95;;;2.30;;
49572;SDS011;35476;52.466;13.364;2023-02-28T10:54:36;4.37;;;2.63;;
49572;SDS011;35476;52.466;13.364;2023-02-28T10:59:34;6.82;;;3.20;;
49572;SDS011;35476;52.466;13.364;2023-02-28T11:01:59;5.78;;;2.75;;
49572;SDS011;35476;52.466;13.364;2023-02-28T11:07:05;4.30;;;2.35;;
49572;SDS011;35476;52.466;13.364;2023-02-28T11:09:32;3.80;;;2.67;;
49572;SDS011;35476;52.466;13.364;2023-02-28T11:11:57;4.07;;;2.17;;
49572;SDS011;35476;52.466;13.364;2023-02-28T11:14:27;6.30;;;2.22;;
49572;SDS011;35476;52.466;13.364;2023-02-28T11:16:53;3.10;;;2.50;;
49572;SDS011;35476;52.466;13.364;2023-02-28T11:19:20;7.47;;;3.00;;
49572;SDS011;35476;52.466;13.364;2023-02-28T11:22:21;4.50;;;2.42;;
49572;SDS011;35476;52.466;13.364;2023-02-28T11:24:42;4.32;;;2.60;;
49572;SDS011;35476;52.466;13.364;2023-02-28T11:27:54;4.05;;;2.47;;
49572;SDS011;35476;52.466;13.364;2023-02-28T11:29:54;4.03;;;2.58;;
49572;SDS011;35476;52.466;13.364;2023-02-28T11:32:20;3.92;;;2.42;;
49572;SDS011;35476;52.466;13.364;2023-02-28T11:34:47;4.40;;;2.90;;
49572;SDS011;35476;52.466;13.364;2023-02-28T11:37:24;5.43;;;2.50;;
49572;SDS011;35476;52.466;13.364;2023-02-28T11:39:50;4.43;;;2.60;;
49572;SDS011;35476;52.466;13.364;2023-02-28T11:42:19;4.77;;;2.80;;
49572;SDS011;35476;52.466;13.364;2023-02-28T11:52:36;6.45;;;3.83;;
49572;SDS011;35476;52.466;13.364;2023-02-28T11:55:13;7.53;;;3.38;;
49572;SDS011;35476;52.466;13.364;2023-02-28T12:07:49;8.67;;;3.57;;
49572;SDS011;35476;52.466;13.364;2023-02-28T12:10:21;6.88;;;3.70;;
49572;SDS011;35476;52.466;13.364;2023-02-28T12:12:59;8.25;;;3.13;;
49572;SDS011;35476;52.466;13.364;2023-02-28T12:21:27;5.07;;;3.42;;
49572;SDS011;35476;52.466;13.364;2023-02-28T12:28:46;9.40;;;3.88;;
49572;SDS011;35476;52.466;13.364;2023-02-28T12:31:16;6.07;;;3.63;;
49572;SDS011;35476;52.466;13.364;2023-02-28T12:33:43;6.13;;;3.40;;
49572;SDS011;35476;52.466;13.364;2023-02-28T12:36:10;7.22;;;4.10;;
49572;SDS011;35476;52.466;13.364;2023-02-28T12:38:43;7.65;;;3.75;;
49572;SDS011;35476;52.466;13.364;2023-02-28T12:41:12;6.30;;;3.63;;
49572;SDS011;35476;52.466;13.364;2023-02-28T12:43:49;6.50;;;3.55;;
49572;SDS011;35476;52.466;13.364;2023-02-28T12:46:23;6.13;;;3.90;;
49572;SDS011;35476;52.466;13.364;2023-02-28T12:48:53;5.88;;;3.80;;
49572;SDS011;35476;52.466;13.364;2023-02-28T12:51:20;5.43;;;3.45;;
49572;SDS011;35476;52.466;13.364;2023-02-28T12:54:09;6.65;;;4.07;;
49572;SDS011;35476;52.466;13.364;2023-02-28T13:04:33;6.43;;;3.13;;
49572;SDS011;35476;52.466;13.364;2023-02-28T13:09:37;4.50;;;3.22;;
49572;SDS011;35476;52.466;13.364;2023-02-28T13:12:04;4.82;;;3.10;;
49572;SDS011;35476;52.466;13.364;2023-02-28T13:14:37;9.48;;;3.63;;
49572;SDS011;35476;52.466;13.364;2023-02-28T13:19:29;4.83;;;3.03;;
49572;SDS011;35476;52.466;13.364;2023-02-28T13:21:54;6.38;;;3.45;;
49572;SDS011;35476;52.466;13.364;2023-02-28T13:24:37;4.20;;;3.28;;
49572;SDS011;35476;52.466;13.364;2023-02-28T13:29:30;4.43;;;3.22;;
49572;SDS011;35476;52.466;13.364;2023-02-28T13:34:39;5.40;;;3.67;;
49572;SDS011;35476;52.466;13.364;2023-02-28T13:39:55;6.30;;;3.10;;
49572;SDS011;35476;52.466;13.364;2023-02-28T13:47:33;5.88;;;3.50;;
49572;SDS011;35476;52.466;13.364;2023-02-28T13:52:48;4.53;;;3.47;;
49572;SDS011;35476;52.466;13.364;2023-02-28T13:56:03;4.82;;;3.30;;
49572;SDS011;35476;52.466;13.364;2023-02-28T14:05:36;6.30;;;3.60;;
49572;SDS011;35476;52.466;13.364;2023-02-28T14:08:06;3.85;;;3.10;;
49572;SDS011;35476;52.466;13.364;2023-02-28T14:11:24;5.05;;;3.35;;
49572;SDS011;35476;52.466;13.364;2023-02-28T14:16:05;5.07;;;3.47;;
49572;SDS011;35476;52.466;13.364;2023-02-28T14:21:04;4.80;;;3.30;;
49572;SDS011;35476;52.466;13.364;2023-02-28T14:26:03;4.40;;;3.37;;
49572;SDS011;35476;52.466;13.364;2023-02-28T14:38:29;7.20;;;3.87;;
49572;SDS011;35476;52.466;13.364;2023-02-28T14:40:56;5.72;;;3.90;;
49572;SDS011;35476;52.466;13.364;2023-02-28T14:43:24;6.15;;;3.70;;
49572;SDS011;35476;52.466;13.364;2023-02-28T14:45:51;6.18;;;3.72;;
49572;SDS011;35476;52.466;13.364;2023-02-28T14:48:16;4.82;;;3.15;;
49572;SDS011;35476;52.466;13.364;2023-02-28T14:50:48;5.40;;;3.63;;
49572;SDS011;35476;52.466;13.364;2023-02-28T14:53:15;7.57;;;3.58;;
49572;SDS011;35476;52.466;13.364;2023-02-28T14:55:46;6.70;;;4.07;;
49572;SDS011;35476;52.466;13.364;2023-02-28T14:58:28;6.00;;;3.50;;
49572;SDS011;35476;52.466;13.364;2023-02-28T15:00:55;5.80;;;3.40;;
49572;SDS011;35476;52.466;13.364;2023-02-28T15:03:28;7.13;;;3.25;;
49572;SDS011;35476;52.466;13.364;2023-02-28T15:06:02;8.95;;;4.32;;
49572;SDS011;35476;52.466;13.364;2023-02-28T15:08:27;5.63;;;3.38;;
49572;SDS011;35476;52.466;13.364;2023-02-28T15:13:52;6.40;;;4.10;;
49572;SDS011;35476;52.466;13.364;2023-02-28T15:16:20;5.68;;;3.35;;
49572;SDS011;35476;52.466;13.364;2023-02-28T15:18:54;5.55;;;3.70;;
49572;SDS011;35476;52.466;13.364;2023-02-28T15:21:20;5.47;;;3.67;;
49572;SDS011;35476;52.466;13.364;2023-02-28T15:23:49;10.82;;;3.95;;
49572;SDS011;35476;52.466;13.364;2023-02-28T15:26:16;6.72;;;3.60;;
49572;SDS011;35476;52.466;13.364;2023-02-28T15:28:44;6.07;;;3.75;;
49572;SDS011;35476;52.466;13.364;2023-02-28T15:31:20;6.68;;;3.90;;
49572;SDS011;35476;52.466;13.364;2023-02-28T15:33:57;8.90;;;3.47;;
49572;SDS011;35476;52.466;13.364;2023-02-28T15:36:28;6.38;;;3.40;;
49572;SDS011;35476;52.466;13.364;2023-02-28T15:38:54;6.93;;;4.00;;
49572;SDS011;35476;52.466;13.364;2023-02-28T15:43:47;7.55;;;3.67;;
49572;SDS011;35476;52.466;13.364;2023-02-28T15:46:12;9.70;;;4.00;;
49572;SDS011;35476;52.466;13.364;2023-02-28T15:51:17;4.93;;;3.00;;
49572;SDS011;35476;52.466;13.364;2023-02-28T15:56:20;7.03;;;3.77;;
49572;SDS011;35476;52.466;13.364;2023-02-28T15:58:46;6.47;;;4.10;;
49572;SDS011;35476;52.466;13.364;2023-02-28T16:01:17;6.45;;;3.63;;
49572;SDS011;35476;52.466;13.364;2023-02-28T16:03:44;8.70;;;3.72;;
49572;SDS011;35476;52.466;13.364;2023-02-28T16:08:41;5.28;;;3.63;;
49572;SDS011;35476;52.466;13.364;2023-02-28T16:11:08;5.30;;;3.72;;
49572;SDS011;35476;52.466;13.364;2023-02-28T16:13:33;5.63;;;3.67;;
49572;SDS011;35476;52.466;13.364;2023-02-28T16:15:58;7.43;;;5.07;;
49572;SDS011;35476;52.466;13.364;2023-02-28T16:18:25;6.18;;;3.08;;
49572;SDS011;35476;52.466;13.364;2023-02-28T16:20:50;5.80;;;3.50;;
49572;SDS011;35476;52.466;13.364;2023-02-28T16:23:15;7.03;;;4.10;;
49572;SDS011;35476;52.466;13.364;2023-02-28T16:25:42;13.00;;;4.03;;
49572;SDS011;35476;52.466;13.364;2023-02-28T16:28:11;5.40;;;3.13;;
49572;SDS011;35476;52.466;13.364;2023-02-28T16:30:37;6.80;;;4.20;;
49572;SDS011;35476;52.466;13.364;2023-02-28T16:33:02;6.50;;;3.60;;
49572;SDS011;35476;52.466;13.364;2023-02-28T16:35:28;6.35;;;3.60;;
49572;SDS011;35476;52.466;13.364;2023-02-28T16:37:53;6.18;;;3.95;;
49572;SDS011;35476;52.466;13.364;2023-02-28T16:40:20;6.22;;;3.50;;
49572;SDS011;35476;52.466;13.364;2023-02-28T16:42:45;7.78;;;4.55;;
49572;SDS011;35476;52.466;13.364;2023-02-28T16:45:15;10.52;;;4.07;;
49572;SDS011;35476;52.466;13.364;2023-02-28T16:47:40;6.93;;;3.85;;
49572;SDS011;35476;52.466;13.364;2023-02-28T16:50:12;6.43;;;3.73;;
49572;SDS011;35476;52.466;13.364;2023-02-28T16:52:38;6.88;;;3.00;;
49572;SDS011;35476;52.466;13.364;2023-02-28T16:55:03;7.20;;;3.47;;